Tiempo atmosférico en la estación meteorológica de Alcañices, Zamora (840 m.)



Fecha
DESCASC
Temp. máxima en grados centígrados (hora)
DESCASC
Temp. mínima en grados centígrados (hora)
DESCASC
Temp. media en grados centígrados
DESCASC
Racha de viento máxima en m/sg (hora)
DESCASC
Velocidad máxima media en intervalos de 10 minutos(hora)
DESCASC
Precipitaciones diarias en mm
DESCASC
Precipitaciones de 00:00 a 06:00 en mm
DESCASC
Precipitaciones de 06:00 a 12:00 en mm
DESCASC
Precipitaciones de 12:00 a 18:00 en mm
DESCASC
Precipitaciones de 18:00 a 24:00 en mm
DESCASC
18-02-2018 12.8 (15:00) -2 (07:50) 5.4 9.44 (15:10) 5.83 (15:10) 0 0 0 0 0
17-02-2018 12.8 (15:10) 1.2 (23:50) 7 10.28 (13:30) 6.67 (11:20) 0 0 0 0 0
16-02-2018 11.1 (15:10) 5.9 (23:59) 8.5 7.22 (00:40) 4.72 (00:40) 0 0 0 0 0
15-02-2018 10.1 (15:00) 8.1 (00:00) 9.1 10.56 (05:10) 6.39 (02:20) 0.8 0.4 0 0.2 0.2
14-02-2018 8.3 (23:20) 5.3 (00:00) 6.8 11.94 (13:00) 8.33 (10:40) 1 0 0 0.2 0.8
13-02-2018 6.2 (19:10) -2.6 (-00:0) 1.8 11.67 (19:10) 7.78 (20:00) 2 0 0 1.2 0.8
12-02-2018 8 (15:40) -2.7 (-00:0) 2.6 10 (16:40) 6.39 (16:30) 0 0 0 0 0
11-02-2018 11.5 (14:50) 1.3 (00:00) 6.4 13.06 (15:00) 7.78 (15:00) 0.8 0 0 0.4 0.4
10-02-2018 12.3 (15:10) -3 (-00:0) 4.7 8.06 (16:10) 4.72 (17:40) 0 0 0 0 0
09-02-2018 10.9 (15:10) -1.3 (-00:0) 4.8 8.61 (22:20) 6.67 (22:20) 0 0 0 0 0
08-02-2018 8.9 (17:10) -7.5 (-00:0) 0.7 5 (15:30) 3.61 (18:40) 0 0 0 0 0
07-02-2018 6.5 (14:50) -5.2 (-00:0) 0.7 10.83 (13:40) 7.5 (13:40) 0 0 0 0 0
06-02-2018 5.8 (12:50) -3.2 (-00:0) 1.3 10.28 (12:40) 7.78 (13:30) 0 0 0 0 0
05-02-2018 7.9 (13:30) -2.6 (-00:0) 2.7 17.22 (15:00) 10.83 (14:20) 0 0 0 0 0
04-02-2018 8.3 (14:10) -1.9 (-00:0) 3.2 11.39 (13:00) 8.61 (12:20) 0 0 0 0 0
03-02-2018 6.3 (12:10) -2.5 (-00:0) 1.9 11.94 (15:10) 8.06 (15:50) 0 0 0 0 0
02-02-2018 8.9 (14:40) -4.2 (-00:0) 2.3 8.89 (16:30) 6.11 (16:30) 0 0 0 0 0
01-02-2018 9 (13:10) -1.3 (-00:0) 3.9 11.11 (16:50) 7.5 (17:00) 0 0 0 0 0
31-01-2018 14.1 (11:40) 1 (00:00) 7.6 6.67 (16:50) 4.44 (16:50) 0 0 0 0 0
30-01-2018 14.8 (16:00) 0.6 (00:00) 7.7 5.83 (03:20) 5.28 (03:10) 0 0 0 0 0
29-01-2018 13.7 (15:30) 1.2 (00:00) 7.4 8.33 (15:50) 6.39 (07:30) 0 0 0 0 0
28-01-2018 11.8 (15:10) -0.4 (00:00) 5.7 13.33 (14:40) 9.17 (16:40) 0 0 0 0 0
27-01-2018 11.6 (14:30) -1.6 (-00:0) 5 8.89 (13:10) 6.11 (16:00) 0 0 0 0 0
26-01-2018 9.4 (15:10) -2.7 (-00:0) 3.3 11.67 (14:20) 8.06 (16:20) 0 0 0 0 0
25-01-2018 7.1 (13:30) 0 (00:00) 3.5 15 (17:00) 7.78 (17:00) 10.6 4.8 4 1.8 0
24-01-2018 9.9 (14:40) 1.9 (00:00) 5.9 5.28 (14:50) 3.89 (16:30) 0 0 0 0 0
23-01-2018 5.6 (15:00) 3.2 (00:00) 4.4 5 (04:30) 3.89 (05:10) 0 0 0 0 0
22-01-2018 13.6 (16:50) 3.1 (00:00) 8.4 6.67 (15:30) 5 (23:00) 0.2 0 0.2 0 0

Gráficas

Temp. máximas Temp. mínimas Temp. medias Precipitaciones Rachas de viento máximas Velocidades máximas media en intervalos de 10 minutos

Datos horarios

Fecha y hora oficial Temperatura (ºC) Velocidad del viento (km/h) Dirección del viento Racha (km/h) Dirección de racha Precipitación (mm) Presión (hPa) Tendencia (hPa) Humedad (%)
2018-02-20 23:00:00 5.1 14 Nordeste 24 Nordeste 0 -- -- 74
2018-02-20 22:00:00 3.9 12 Norte 19 Nordeste 0 -- -- 79
2018-02-20 21:00:00 6 12 Nordeste 21 Nordeste 0 -- -- 69
2018-02-20 20:00:00 7.5 16 Nordeste 26 Norte 0 -- -- 64
2018-02-20 19:00:00 9.3 15 Norte 36 Nordeste 0 -- -- 58
2018-02-20 18:00:00 12.5 25 Nordeste 40 Norte 0 -- -- 47
2018-02-20 17:00:00 13.6 28 Nordeste 37 Nordeste 0 -- -- 46
2018-02-20 16:00:00 14.5 25 Nordeste 39 Nordeste 0 -- -- 40
2018-02-20 15:00:00 14.1 23 Nordeste 34 Norte 0 -- -- 41
2018-02-20 14:00:00 14.5 15 Norte 28 Nordeste 0 -- -- 41
2018-02-20 13:00:00 13.7 13 Norte 30 Este 0 -- -- 44
2018-02-20 12:00:00 11.5 17 Nordeste 28 Nordeste 0 -- -- 50
2018-02-20 11:00:00 10.4 12 Nordeste 19 Nordeste 0 -- -- 59
2018-02-20 10:00:00 8.5 10 Nordeste 14 Nordeste 0 -- -- 64
2018-02-20 09:00:00 6 4 Este 12 Nordeste 0 -- -- 79
2018-02-20 08:00:00 3.1 12 Nordeste 13 Nordeste 0 -- -- 88
2018-02-20 07:00:00 2.4 7 Norte 10 Norte 0 -- -- 92
2018-02-20 06:00:00 2.7 2 Nordeste 4 Noroeste 0 -- -- 91
2018-02-20 05:00:00 2.3 4 Oeste 10 Nordeste 0 -- -- 94
2018-02-20 04:00:00 4.2 9 Nordeste 15 Nordeste 0 -- -- 85
2018-02-20 03:00:00 4.6 12 Este 15 Nordeste 0 -- -- 82
2018-02-20 02:00:00 5.9 13 Nordeste 18 Nordeste 0 -- -- 80
2018-02-20 01:00:00 5.3 10 Nordeste 18 Nordeste 0 -- -- 81
2018-02-20 00:00:00 4.6 13 Nordeste 14 Nordeste 0 -- -- 82
2018-02-19 23:00:00 5.6 12 Nordeste 15 Nordeste 0 -- -- 79
2018-02-19 22:00:00 5.8 12 Nordeste 13 Nordeste 0 -- -- 78
2018-02-19 21:00:00 6.7 10 Este 12 Nordeste 0 -- -- 74
2018-02-19 20:00:00 7.7 10 Nordeste 17 Nordeste 0 -- -- 71
2018-02-19 19:00:00 9.5 10 Nordeste 20 Nordeste 0 -- -- 64
2018-02-19 18:00:00 11.5 12 Nordeste 18 Nordeste 0 -- -- 56
2018-02-19 17:00:00 12.5 13 Nordeste 21 Nordeste 0 -- -- 52
2018-02-19 16:00:00 12.8 12 Nordeste 23 Nordeste 0 -- -- 51
2018-02-19 15:00:00 14.5 7 Norte 17 Norte 0 -- -- 48
2018-02-19 14:00:00 11.7 8 Nordeste 17 Norte 0 -- -- 54
2018-02-19 13:00:00 11.8 8 Norte 16 Nordeste 0 -- -- 53
2018-02-19 12:00:00 11.5 5 Nordeste 9 Este 0 -- -- 57
2018-02-19 11:00:00 8.5 4 Sudeste 8 Sur 0 -- -- 66
2018-02-19 10:00:00 8.1 0 Calma 4 Noroeste 0 -- -- 73
2018-02-19 09:00:00 4 0 Calma 6 Este 0 -- -- 89
2018-02-19 08:00:00 3.9 4 Este 7 Este 0 -- -- 88
2018-02-19 07:00:00 4.1 3 Oeste 8 Noroeste 0 -- -- 86
2018-02-19 06:00:00 4.3 4 Sur 6 Sur 0 -- -- 85
2018-02-19 05:00:00 4.8 0 Calma 5 Sur 0 -- -- 83
2018-02-19 04:00:00 4.6 5 Noroeste 11 Noroeste 0 -- -- 86
2018-02-19 03:00:00 5.1 8 Este 10 Este 0 -- -- 84
2018-02-19 02:00:00 4.7 9 Este -- -- 0 -- -- 84
2018-02-19 01:00:00 5.4 9 Nordeste 13 Norte 0 -- -- 80
2018-02-19 00:00:00 5.6 8 Norte 12 Nordeste 0 -- -- 82
2018-02-18 23:00:00 6.3 9 Nordeste 13 Nordeste 0 -- -- 75
2018-02-18 22:00:00 6.7 10 Nordeste 15 Nordeste 0 -- -- 73
2018-02-18 21:00:00 6 7 Nordeste 9 Nordeste 0 -- -- 76
2018-02-18 20:00:00 6.1 8 Este 13 Nordeste 0 -- -- 75
2018-02-18 19:00:00 7.9 13 Nordeste 15 Este 0 -- -- 66
2018-02-18 18:00:00 10.7 9 Este 20 Este 0 -- -- 55
2018-02-18 17:00:00 11.6 13 Este 31 Este 0 -- -- 50
2018-02-18 16:00:00 12.5 19 Nordeste 34 Nordeste 0 -- -- 49
2018-02-18 15:00:00 12.8 17 Nordeste 26 Nordeste 0 -- -- 47
2018-02-18 14:00:00 11 17 Este 27 Nordeste 0 -- -- 50
2018-02-18 13:00:00 10 14 Este 25 Este 0 -- -- 53
2018-02-18 12:00:00 8 16 Nordeste 22 Este 0 -- -- 61
2018-02-18 11:00:00 5.2 13 Este 21 Este 0 -- -- 74
2018-02-18 10:00:00 2.4 6 Nordeste 9 Nordeste 0 -- -- 86
2018-02-18 09:00:00 -0.5 7 Nordeste 13 Nordeste 0 -- -- 96
2018-02-18 08:00:00 -1.9 9 Nordeste 14 Nordeste 0 -- -- 99
2018-02-18 07:00:00 -1.4 12 Nordeste 15 Nordeste 0 -- -- 97
2018-02-18 06:00:00 -0.9 12 Nordeste 15 Nordeste 0 -- -- 96
2018-02-18 05:00:00 -0.9 10 Nordeste 17 Nordeste 0 -- -- 94
2018-02-18 04:00:00 -0.5 13 Nordeste 16 Nordeste 0 -- -- 93
2018-02-18 03:00:00 0.5 14 Nordeste 20 Nordeste 0 -- -- 89
2018-02-18 02:00:00 1.4 18 Nordeste 24 Este 0 -- -- 87
2018-02-18 01:00:00 1.5 14 Nordeste 19 Nordeste 0 -- -- 86
2018-02-18 00:00:00 1.2 9 Este 23 Nordeste 0 -- -- 84
2018-02-17 23:00:00 2.9 18 Nordeste 23 Nordeste 0 -- -- 76
2018-02-17 22:00:00 3.7 16 Nordeste 23 Nordeste 0 -- -- 76
2018-02-17 21:00:00 4.7 14 Nordeste 23 Nordeste 0 -- -- 68
2018-02-17 20:00:00 5.1 12 Nordeste 17 Nordeste 0 -- -- 64
2018-02-17 19:00:00 7.7 15 Nordeste 30 Nordeste 0 -- -- 53
2018-02-17 18:00:00 10.6 16 Nordeste 29 Nordeste 0 -- -- 47
2018-02-17 17:00:00 12.3 16 Este 31 Este 0 -- -- 41
2018-02-17 16:00:00 12.6 14 Nordeste 35 Nordeste 0 -- -- 41
2018-02-17 15:00:00 12.7 16 Nordeste 34 Nordeste 0 -- -- 40
2018-02-17 14:00:00 11.8 18 Nordeste 37 Nordeste 0 -- -- 43
2018-02-17 13:00:00 11.4 19 Nordeste 36 Nordeste 0 -- -- 47
2018-02-17 12:00:00 10.4 18 Nordeste 34 Nordeste 0 -- -- 60
2018-02-17 11:00:00 7.8 19 Nordeste 31 Nordeste 0 -- -- 81
2018-02-17 10:00:00 6.9 12 Nordeste 17 Nordeste 0 -- -- 93
2018-02-17 09:00:00 4.2 8 Nordeste 10 Nordeste 0 -- -- 100
2018-02-17 08:00:00 4.1 0 Calma 9 Este 0 -- -- 100
2018-02-17 07:00:00 3.9 8 Sudoeste 9 Sudoeste 0 -- -- 100
2018-02-17 06:00:00 4.2 5 Noroeste 14 Oeste 0 -- -- 100
2018-02-17 05:00:00 4.6 4 Oeste 15 Sudoeste 0 -- -- 100
2018-02-17 04:00:00 5 12 Oeste 17 Oeste 0 -- -- 100
2018-02-17 03:00:00 5.4 16 Oeste 22 Sudoeste 0 -- -- 99
2018-02-17 02:00:00 5.9 15 Oeste 19 Oeste 0 -- -- 100
2018-02-17 01:00:00 6 13 Oeste 15 Oeste 0 -- -- 100
2018-02-17 00:00:00 5.9 7 Sudoeste 12 Oeste 0 -- -- 100
2018-02-16 23:00:00 7.4 7 Sudoeste 12 Sudoeste 0 -- -- 99
2018-02-16 22:00:00 7.6 9 Oeste 12 Sudoeste 0 -- -- 96
2018-02-16 21:00:00 8 10 Sudoeste 23 Sudoeste 0 -- -- 94
2018-02-16 20:00:00 8.9 12 Sudoeste 20 Sudoeste 0 -- -- 92
2018-02-16 19:00:00 9.3 7 Oeste 13 Sudoeste 0 -- -- 90
2018-02-16 18:00:00 9.7 10 Oeste 20 Oeste 0 -- -- 89
2018-02-16 17:00:00 10.4 11 Sudoeste 23 Sudoeste 0 -- -- 86
2018-02-16 16:00:00 10.7 13 Sudoeste 20 Sudoeste 0 -- -- 88
2018-02-16 15:00:00 11 14 Sudoeste 19 Sur 0 -- -- 90
2018-02-16 14:00:00 10.1 11 Sudoeste 18 Sudoeste 0 -- -- 95
2018-02-16 13:00:00 9.5 12 Sudoeste 18 Sudoeste 0 -- -- 100
2018-02-16 12:00:00 9.2 13 Sudoeste 21 Sudoeste 0 -- -- 100
2018-02-16 11:00:00 8.6 9 Sudoeste 17 Sudoeste 0 -- -- 100
2018-02-16 10:00:00 8.4 9 Sudoeste 16 Sudoeste 0 -- -- 100
2018-02-16 09:00:00 8.1 9 Sudoeste 18 Sudoeste 0 -- -- 100
2018-02-16 08:00:00 8.1 13 Sudoeste 22 Sudoeste 0 -- -- 100
2018-02-16 07:00:00 8.1 15 Sudoeste 23 Sur 0 -- -- 100
2018-02-16 06:00:00 8.2 12 Sudoeste 21 Sur 0 -- -- 100
2018-02-16 05:00:00 8.5 13 Sudoeste 20 Sudoeste 0 -- -- 100
2018-02-16 04:00:00 8.6 14 Sudoeste 19 Sudoeste 0 -- -- 100
2018-02-16 03:00:00 8.7 13 Sudoeste 22 Sudoeste 0 -- -- 100
2018-02-16 02:00:00 8.8 15 Sudoeste 23 Sur 0 -- -- 100
2018-02-16 01:00:00 9 14 Sudoeste 26 Sudoeste 0 -- -- 100
2018-02-16 00:00:00 9.1 15 Sudoeste 24 Sudoeste 0 -- -- 100
2018-02-15 23:00:00 9.1 14 Sur 25 Sur 0 -- -- 100
2018-02-15 22:00:00 9.1 14 Sur 29 Sur 0 -- -- 100
2018-02-15 21:00:00 9.3 16 Sudoeste 30 Sudoeste 0.2 -- -- 100
2018-02-15 20:00:00 9.4 15 Sudoeste 27 Sur 0 -- -- 100
2018-02-15 19:00:00 9.6 15 Sudoeste 33 Sudoeste 0 -- -- 100
2018-02-15 18:00:00 9.8 18 Sudoeste 33 Sudoeste 0 -- -- 100
2018-02-15 17:00:00 10 14 Sudoeste 31 Sudoeste 0 -- -- 100
2018-02-15 16:00:00 10 20 Sudoeste 32 Sudoeste 0 -- -- 100
2018-02-15 15:00:00 10.1 17 Sudoeste 28 Sudoeste 0 -- -- 99
2018-02-15 14:00:00 9.7 14 Sudoeste 23 Sur 0.2 -- -- 100
2018-02-15 13:00:00 9.4 16 Sudoeste 30 Sur 0 -- -- 100
2018-02-15 12:00:00 8.7 18 Sudoeste 30 Sur 0 -- -- 100
2018-02-15 11:00:00 8.6 19 Sudoeste 33 Sudoeste 0 -- -- 100
2018-02-15 10:00:00 8.4 15 Sudoeste 30 Sudoeste 0 -- -- 100
2018-02-15 09:00:00 8.2 18 Sudoeste 30 Sudoeste 0 -- -- 100
2018-02-15 08:00:00 8.1 17 Sudoeste 32 Sudoeste 0 -- -- 100
2018-02-15 07:00:00 8.1 21 Sudoeste 33 Sudoeste 0 -- -- 100
2018-02-15 06:00:00 8.2 18 Sudoeste 38 Sudoeste 0 -- -- 100
2018-02-15 05:00:00 8.3 18 Sudoeste 31 Sudoeste 0.2 -- -- 100
2018-02-15 04:00:00 8.3 19 Sudoeste 34 Sudoeste 0.2 -- -- 100
2018-02-15 03:00:00 8.3 19 Sudoeste 35 Sudoeste 0 -- -- 100
2018-02-15 02:00:00 8.2 22 Sudoeste 36 Sudoeste 0 -- -- 100
2018-02-15 01:00:00 8.2 14 Sudoeste 27 Sudoeste 0 -- -- 100
2018-02-15 00:00:00 8.2 16 Sudoeste 31 Sudoeste 0 -- -- 100
2018-02-14 23:00:00 8.2 18 Sudoeste 31 Sudoeste 0.4 -- -- 100
2018-02-14 22:00:00 8.2 17 Sudoeste 32 Sudoeste 0.2 -- -- 100
2018-02-14 21:00:00 8.1 18 Sudoeste 35 Sudoeste 0 -- -- 100
2018-02-14 20:00:00 8 21 Sudoeste 32 Sudoeste 0 -- -- 100
2018-02-14 19:00:00 7.6 18 Sudoeste 32 Sudoeste 0.2 -- -- 100
2018-02-14 18:00:00 7.7 19 Sudoeste 31 Sudoeste 0 -- -- 100
2018-02-14 17:00:00 8 21 Sudoeste 32 Sudoeste 0 -- -- 99
2018-02-14 16:00:00 7.5 19 Sudoeste 35 Oeste 0.2 -- -- 100
2018-02-14 15:00:00 7.4 23 Sudoeste 40 Sudoeste 0 -- -- 100
2018-02-14 14:00:00 7.2 23 Sudoeste 41 Sudoeste 0 -- -- 100
2018-02-14 13:00:00 7.1 27 Sudoeste 43 Sudoeste 0 -- -- 100
2018-02-14 12:00:00 7.1 25 Sudoeste 42 Sudoeste 0 -- -- 99
2018-02-14 11:00:00 6.8 26 Sudoeste 42 Sudoeste 0 -- -- 99
2018-02-14 10:00:00 6.5 23 Sudoeste 39 Sudoeste 0 -- -- 99
2018-02-14 09:00:00 6 22 Sudoeste 35 Sudoeste 0 -- -- 99
2018-02-14 08:00:00 6 18 Sudoeste 34 Sudoeste 0 -- -- 97
2018-02-14 07:00:00 6 21 Sudoeste 34 Sudoeste 0 -- -- 96
2018-02-14 06:00:00 5.7 22 Sudoeste 39 Sudoeste 0 -- -- 97
2018-02-14 05:00:00 5.4 24 Sudoeste 37 Sudoeste 0 -- -- 98
2018-02-14 04:00:00 5.3 19 Sudoeste 36 Sudoeste 0 -- -- 99
2018-02-14 03:00:00 5.4 24 Sudoeste 38 Sudoeste 0 -- -- 98
2018-02-14 02:00:00 5.4 20 Sudoeste 35 Sudoeste 0 -- -- 98
2018-02-14 01:00:00 5.3 25 Sudoeste 40 Oeste 0 -- -- 100
2018-02-14 00:00:00 5.5 22 Sudoeste 36 Sudoeste 0 -- -- 100
2018-02-13 23:00:00 5.7 23 Sudoeste 40 Sudoeste 0 -- -- 99
2018-02-13 22:00:00 5.9 23 Sudoeste 35 Oeste 0.2 -- -- 99
2018-02-13 21:00:00 5.9 23 Sudoeste 40 Sudoeste 0.2 -- -- 100
2018-02-13 20:00:00 6.1 28 Sudoeste 42 Sudoeste 0.2 -- -- 98
2018-02-13 19:00:00 6.1 25 Sudoeste 39 Sudoeste 0.2 -- -- 97
2018-02-13 18:00:00 6 21 Sudoeste 34 Sudoeste 0.2 -- -- 97
2018-02-13 17:00:00 5.6 20 Sudoeste 41 Sudoeste 0.2 -- -- 98
2018-02-13 16:00:00 5.2 20 Sudoeste 38 Sudoeste 0 -- -- 98
2018-02-13 15:00:00 4 19 Sudoeste 34 Sudoeste 0.2 -- -- 100
2018-02-13 14:00:00 3 21 Sudoeste 32 Sudoeste 0.2 -- -- 100
2018-02-13 13:00:00 1.9 22 Sudoeste 38 Sudoeste 0.4 -- -- 100
2018-02-13 12:00:00 1.2 25 Sudoeste 37 Sudoeste 0 -- -- 100
2018-02-13 11:00:00 0.3 25 Sudoeste 39 Sudoeste 0 -- -- 98
2018-02-13 10:00:00 0 26 Sudoeste 42 Sudoeste 0 -- -- 96
2018-02-13 09:00:00 -0.2 24 Sudoeste 37 Sudoeste 0 -- -- 91
2018-02-13 08:00:00 -1 20 Sudoeste 34 Sudoeste 0 -- -- 93
2018-02-13 07:00:00 -1.7 14 Sudoeste 26 Sur 0 -- -- 94
2018-02-13 06:00:00 -2 18 Sudoeste 29 Sudoeste 0 -- -- 94
2018-02-13 05:00:00 -2.6 13 Sudoeste 22 Sudoeste 0 -- -- 96
2018-02-13 04:00:00 -2.1 13 Sudoeste 20 Sudoeste 0 -- -- 91
2018-02-13 03:00:00 -2.4 14 Sudoeste 22 Oeste 0 -- -- 89
2018-02-13 02:00:00 -1.1 17 Sudoeste 22 Sudoeste 0 -- -- 82
2018-02-13 01:00:00 -2.6 6 Sudoeste 12 Sudoeste 0 -- -- 86
2018-02-13 00:00:00 -0.9 5 Sudoeste 8 Sudoeste 0 -- -- 77
2018-02-12 23:00:00 -0.6 4 Sudoeste 7 Noroeste 0 -- -- 77
2018-02-12 22:00:00 -0.4 9 Noroeste 21 Oeste 0 -- -- 76
2018-02-12 21:00:00 0.8 14 Oeste 22 Oeste 0 -- -- 72
2018-02-12 20:00:00 1.2 11 Oeste 16 Oeste 0 -- -- 70
2018-02-12 19:00:00 2.6 12 Oeste 28 Oeste 0 -- -- 62
2018-02-12 18:00:00 6 19 Oeste 33 Noroeste 0 -- -- 47
2018-02-12 17:00:00 7.1 22 Oeste 36 Oeste 0 -- -- 44
2018-02-12 16:00:00 7.4 22 Oeste 34 Oeste 0 -- -- 43
2018-02-12 15:00:00 7.5 13 Oeste 25 Oeste 0 -- -- 44
2018-02-12 14:00:00 6.4 14 Oeste 27 Sudoeste 0 -- -- 45
2018-02-12 13:00:00 7.4 12 Noroeste 19 Noroeste 0 -- -- 40
2018-02-12 12:00:00 6.8 13 Norte 21 Norte 0 -- -- 43
2018-02-12 11:00:00 5.3 12 Noroeste 17 Noroeste 0 -- -- 50
2018-02-12 10:00:00 2.3 8 Noroeste 10 Noroeste 0 -- -- 61
2018-02-12 09:00:00 -1.9 9 Noroeste 10 Noroeste 0 -- -- 76
2018-02-12 08:00:00 -1.9 9 Nordeste 12 Nordeste 0 -- -- 72
2018-02-12 07:00:00 -1.3 9 Nordeste 22 Norte 0 -- -- 67
2018-02-12 06:00:00 -0.5 10 Norte 14 Norte 0 -- -- 65
2018-02-12 05:00:00 0.3 6 Norte 13 Norte 0 -- -- 78
2018-02-12 04:00:00 1.5 9 Norte 14 Norte 0 -- -- 79
2018-02-12 03:00:00 1.2 4 Noroeste 11 Norte 0 -- -- 85
2018-02-12 02:00:00 1.8 10 Norte 21 Noroeste 0 -- -- 83
2018-02-12 01:00:00 2.4 12 Noroeste 17 Oeste 0 -- -- 94
2018-02-12 00:00:00 2.2 9 Oeste 24 Oeste 0 -- -- 97
2018-02-11 23:00:00 3.9 15 Oeste 24 Oeste 0 -- -- 95
2018-02-11 22:00:00 5.4 9 Oeste 22 Sudoeste 0 -- -- 95
2018-02-11 21:00:00 6.7 11 Sudoeste 26 Oeste 0 -- -- 98
2018-02-11 20:00:00 7.5 16 Oeste 36 Oeste 0.4 -- -- 98
2018-02-11 19:00:00 7.6 15 Sudoeste 33 Sudoeste 0 -- -- 97
2018-02-11 18:00:00 8.2 18 Sudoeste 33 Sudoeste 0 -- -- 95
2018-02-11 17:00:00 8.1 14 Sudoeste 31 Sudoeste 0.2 -- -- 96
2018-02-11 16:00:00 8.5 21 Sudoeste 36 Sudoeste 0.2 -- -- 91
2018-02-11 15:00:00 10.3 28 Oeste 47 Sudoeste 0 -- -- 79
2018-02-11 14:00:00 9.9 24 Sudoeste 36 Oeste 0 -- -- 83
2018-02-11 13:00:00 8.8 24 Sudoeste 39 Sudoeste 0 -- -- 88
2018-02-11 12:00:00 8.1 22 Sudoeste 36 Sudoeste 0 -- -- 91
2018-02-11 11:00:00 7.3 21 Sudoeste 34 Oeste 0 -- -- 99
2018-02-11 10:00:00 6 23 Sudoeste 33 Sudoeste 0 -- -- 100
2018-02-11 09:00:00 4.6 17 Sudoeste 26 Sudoeste 0 -- -- 100
2018-02-11 08:00:00 4.4 18 Sudoeste 24 Sudoeste 0 -- -- 100
2018-02-11 07:00:00 3.9 15 Sudoeste 29 Oeste 0 -- -- 100
2018-02-11 06:00:00 3.5 19 Sudoeste 26 Sudoeste 0 -- -- 100
2018-02-11 05:00:00 2.2 18 Sudoeste 23 Sudoeste 0 -- -- 100
2018-02-11 04:00:00 1.9 14 Oeste 20 Oeste 0 -- -- 100
2018-02-11 03:00:00 1.6 14 Sudoeste 22 Sudoeste 0 -- -- 100
2018-02-11 02:00:00 1.4 12 Sudoeste 19 Sudoeste 0 -- -- 99
2018-02-11 01:00:00 1.6 11 Sudoeste 18 Sudoeste 0 -- -- 95
2018-02-11 00:00:00 2.6 14 Sudoeste 17 Sudoeste 0 -- -- 89
2018-02-10 23:00:00 3.2 9 Sudoeste 15 Oeste 0 -- -- 83
2018-02-10 22:00:00 3.8 7 Oeste 17 Oeste 0 -- -- 81
2018-02-10 21:00:00 5.4 10 Oeste 17 Oeste 0 -- -- 73
2018-02-10 20:00:00 6.2 5 Oeste 15 Oeste 0 -- -- 69
2018-02-10 19:00:00 7.1 10 Oeste 19 Sudoeste 0 -- -- 64
2018-02-10 18:00:00 8.2 14 Sudoeste 24 Sudoeste 0 -- -- 55
2018-02-10 17:00:00 10.3 12 Oeste 29 Oeste 0 -- -- 42
2018-02-10 16:00:00 10.8 10 Oeste 22 Oeste 0 -- -- 41
2018-02-10 15:00:00 11.6 3 Oeste 18 Noroeste 0 -- -- 39
2018-02-10 14:00:00 10.2 8 Noroeste 15 Oeste 0 -- -- 40
2018-02-10 13:00:00 9.7 6 Norte 12 Norte 0 -- -- 42
2018-02-10 12:00:00 9.1 3 Norte 9 Noroeste 0 -- -- 44
2018-02-10 11:00:00 6.9 5 Noroeste 9 Noroeste 0 -- -- 58
2018-02-10 10:00:00 6.3 2 Noroeste 6 Este 0 -- -- 60
2018-02-10 09:00:00 -0.3 6 Sudoeste 10 Oeste 0 -- -- 83
2018-02-10 08:00:00 -1.6 3 Norte 6 Noroeste 0 -- -- 88
2018-02-10 07:00:00 -1.1 8 Oeste 11 Oeste 0 -- -- 84
2018-02-10 06:00:00 -1.5 4 Sudoeste 10 Sudoeste 0 -- -- 86
2018-02-10 05:00:00 -1.1 4 Oeste 9 Oeste 0 -- -- 84
2018-02-10 04:00:00 -1.6 3 Sudoeste 9 Noroeste 0 -- -- 85
2018-02-10 03:00:00 -2 3 Oeste 7 Sur 0 -- -- 84
2018-02-10 02:00:00 -1 4 Sudoeste 5 Sudoeste 0 -- -- 82
2018-02-10 01:00:00 -0.5 3 Sudeste 7 Sur 0 -- -- 80
2018-02-10 00:00:00 -0.5 5 Sur 13 Norte 0 -- -- 80
2018-02-09 23:00:00 1.5 16 Norte 31 Norte 0 -- -- 71
2018-02-09 22:00:00 2.2 19 Norte 27 Norte 0 -- -- 74
2018-02-09 21:00:00 2.8 20 Norte 28 Norte 0 -- -- 77
2018-02-09 20:00:00 3 14 Norte 19 Noroeste 0 -- -- 78
2018-02-09 19:00:00 5.3 14 Norte 25 Norte 0 -- -- 68
2018-02-09 18:00:00 7.7 18 Norte 31 Norte 0 -- -- 59
2018-02-09 17:00:00 9.2 20 Norte 28 Norte 0 -- -- 51
2018-02-09 16:00:00 9.4 14 Oeste 26 Oeste 0 -- -- 67
2018-02-09 15:00:00 10.7 14 Oeste 22 Oeste 0 -- -- 61
2018-02-09 14:00:00 8.4 10 Oeste 22 Sudoeste 0 -- -- 90
2018-02-09 13:00:00 4.4 12 Oeste 19 Sudoeste 0 -- -- 98
2018-02-09 12:00:00 2.4 11 Sudoeste 19 Oeste 0 -- -- 100
2018-02-09 11:00:00 1 11 Sudoeste 18 Sudoeste 0 -- -- 100
2018-02-09 10:00:00 0 13 Sudoeste 18 Sudoeste 0 -- -- 100
2018-02-09 09:00:00 -0.6 11 Oeste 17 Oeste 0 -- -- 100
2018-02-09 08:00:00 -0.8 10 Sudoeste 14 Oeste 0 -- -- 98
2018-02-09 07:00:00 -0.8 7 Sudoeste 12 Sudoeste 0 -- -- 96
2018-02-09 06:00:00 -0.6 5 Sudoeste 9 Oeste 0 -- -- 90
2018-02-09 05:00:00 -0.3 5 Oeste 11 Sudoeste 0 -- -- 72
2018-02-09 04:00:00 0 6 Sudoeste 12 Sudoeste 0 -- -- 68
2018-02-09 03:00:00 0 9 Sudoeste 17 Sudoeste 0 -- -- 67
2018-02-09 02:00:00 -0.6 8 Sur 11 Sur 0 -- -- 68
2018-02-09 01:00:00 -1.2 5 Sur 11 Sur 0 -- -- 69
2018-02-09 00:00:00 0.1 8 Sudoeste 10 Sudoeste 0 -- -- 63
2018-02-08 23:00:00 0.1 7 Sudoeste 10 Sudoeste 0 -- -- 63
2018-02-08 22:00:00 0.3 6 Sudoeste 9 Sudoeste 0 -- -- 62
2018-02-08 21:00:00 0 7 Sudoeste 14 Sudoeste 0 -- -- 62
2018-02-08 20:00:00 0.1 10 Sudoeste 18 Oeste 0 -- -- 60
2018-02-08 19:00:00 2 11 Sudoeste 17 Sudoeste 0 -- -- 53
2018-02-08 18:00:00 6 9 Oeste 15 Sudoeste 0 -- -- 39
2018-02-08 17:00:00 8.7 4 Norte 15 Noroeste 0 -- -- 34
2018-02-08 16:00:00 7.2 9 Noroeste 18 Oeste 0 -- -- 36
2018-02-08 15:00:00 6.7 7 Nordeste 18 Norte 0 -- -- 38
2018-02-08 14:00:00 6.5 3 Oeste 15 Noroeste 0 -- -- 39
2018-02-08 13:00:00 5.1 8 Norte 17 Noroeste 0 -- -- 43
2018-02-08 12:00:00 6.2 4 Norte 11 Norte 0 -- -- 42
2018-02-08 11:00:00 1.5 6 Noroeste 13 Norte 0 -- -- 60
2018-02-08 10:00:00 1.1 5 Noroeste 10 Noroeste 0 -- -- 64
2018-02-08 09:00:00 -6.3 9 Noroeste 10 Noroeste 0 -- -- 89
2018-02-08 08:00:00 -5.4 3 Este 4 Este 0 -- -- 90
2018-02-08 07:00:00 -6.5 2 Oeste 9 Este 0 -- -- 89
2018-02-08 06:00:00 -4.4 9 Este 12 Este 0 -- -- 84
2018-02-08 05:00:00 -5.6 3 Este 9 Este 0 -- -- 89
2018-02-08 04:00:00 -4.6 8 Este 11 Este 0 -- -- 86
2018-02-08 03:00:00 -4.9 9 Este 12 Este 0 -- -- 86
2018-02-08 02:00:00 -4.5 7 Este 11 Nordeste 0 -- -- 82
2018-02-08 01:00:00 -4.3 9 Nordeste 12 Nordeste 0 -- -- 82
2018-02-08 00:00:00 -3.5 10 Nordeste 13 Nordeste 0 -- -- 80
2018-02-07 23:00:00 -3.3 10 Nordeste 14 Nordeste 0 -- -- 78
2018-02-07 22:00:00 -2.8 9 Nordeste 15 Norte 0 -- -- 74
2018-02-07 21:00:00 -2.8 9 Norte 18 Norte 0 -- -- 71
2018-02-07 20:00:00 -0.8 15 Norte 25 Norte 0 -- -- 63
2018-02-07 19:00:00 1.9 21 Nordeste 31 Nordeste 0 -- -- 49
2018-02-07 18:00:00 4.5 17 Norte 29 Norte 0 -- -- 49
2018-02-07 17:00:00 4.9 25 Norte 36 Nordeste 0 -- -- 50
2018-02-07 16:00:00 4.9 24 Nordeste 36 Nordeste 0 -- -- 42
2018-02-07 15:00:00 4.6 17 Nordeste 32 Nordeste 0 -- -- 44
2018-02-07 14:00:00 4.8 21 Nordeste 39 Nordeste 0 -- -- 42
2018-02-07 13:00:00 5.7 25 Nordeste 38 Este 0 -- -- 44
2018-02-07 12:00:00 5.3 18 Nordeste 30 Nordeste 0 -- -- 49
2018-02-07 11:00:00 4.7 16 Norte 24 Norte 0 -- -- 55
2018-02-07 10:00:00 2.4 12 Norte 17 Noroeste 0 -- -- 65
2018-02-07 09:00:00 -2.2 6 Norte 9 Norte 0 -- -- 75
2018-02-07 08:00:00 -3.9 8 Noroeste 10 Noroeste 0 -- -- 82
2018-02-07 07:00:00 -4.8 3 Oeste 10 Norte 0 -- -- 86
2018-02-07 06:00:00 -4.2 6 Norte 10 Norte 0 -- -- 86
2018-02-07 05:00:00 -2.9 5 Norte 12 Norte 0 -- -- 78
2018-02-07 04:00:00 -4.1 3 Noroeste 12 Norte 0 -- -- 82
2018-02-07 03:00:00 -3.4 7 Norte 10 Norte 0 -- -- 79
2018-02-07 02:00:00 -4 6 Noroeste 8 Noroeste 0 -- -- 86
2018-02-07 01:00:00 -3.3 6 Norte 9 Noroeste 0 -- -- 85
2018-02-07 00:00:00 -3.2 4 Noroeste 8 Nordeste 0 -- -- 81
2018-02-06 23:00:00 -1.7 5 Nordeste 8 Nordeste 0 -- -- 74
2018-02-06 22:00:00 -0.5 5 Nordeste 9 Norte 0 -- -- 67
2018-02-06 21:00:00 -1.6 8 Norte 12 Norte 0 -- -- 76
2018-02-06 20:00:00 -0.1 7 Norte 14 Noroeste 0 -- -- 67
2018-02-06 19:00:00 1.3 12 Noroeste 18 Norte 0 -- -- 58
2018-02-06 18:00:00 4.8 15 Norte 28 Norte 0 -- -- 47
2018-02-06 17:00:00 4.8 18 Norte 28 Noroeste 0 -- -- 46
2018-02-06 16:00:00 5.3 18 Norte 29 Norte 0 -- -- 44
2018-02-06 15:00:00 5.8 19 Norte 32 Norte 0 -- -- 44
2018-02-06 14:00:00 4.3 17 Nordeste 37 Nordeste 0 -- -- 43
2018-02-06 13:00:00 5.1 23 Nordeste 37 Nordeste 0 -- -- 42
2018-02-06 12:00:00 4.2 25 Nordeste 37 Nordeste 0 -- -- 44
2018-02-06 11:00:00 3.8 19 Norte 26 Norte 0 -- -- 45
2018-02-06 10:00:00 1.9 5 Noroeste 11 Norte 0 -- -- 51
2018-02-06 09:00:00 -1.3 6 Noroeste 21 Norte 0 -- -- 59
2018-02-06 08:00:00 -2.4 13 Nordeste 30 Norte 0 -- -- 61
2018-02-06 07:00:00 -1.8 18 Nordeste 36 Norte 0 -- -- 58
2018-02-06 06:00:00 -1.4 26 Norte 36 Norte 0 -- -- 56
2018-02-06 05:00:00 -1.4 22 Norte 34 Norte 0 -- -- 59
2018-02-06 04:00:00 -1.8 21 Nordeste 27 Nordeste 0 -- -- 62
2018-02-06 03:00:00 -1.3 13 Norte 24 Norte 0 -- -- 59
2018-02-06 02:00:00 -1.2 17 Norte 29 Nordeste 0 -- -- 61
2018-02-06 01:00:00 -0.7 21 Norte 30 Nordeste 0 -- -- 59
2018-02-06 00:00:00 -0.7 21 Norte 35 Norte 0 -- -- 62
2018-02-05 23:00:00 0 24 Nordeste 36 Nordeste 0 -- -- 62
2018-02-05 22:00:00 -0.6 18 Nordeste 26 Norte 0 -- -- 67
2018-02-05 21:00:00 0.1 21 Norte 31 Norte 0 -- -- 66
2018-02-05 20:00:00 0.7 20 Norte 34 Norte 0 -- -- 63
2018-02-05 19:00:00 2 23 Norte 40 Norte 0 -- -- 57
2018-02-05 18:00:00 4.3 31 Norte 49 Norte 0 -- -- 49
2018-02-05 17:00:00 5.8 33 Norte 50 Norte 0 -- -- 43
2018-02-05 16:00:00 6.4 37 Norte 59 Nordeste 0 -- -- 43
2018-02-05 15:00:00 6.5 35 Norte 62 Norte 0 -- -- 46
2018-02-05 14:00:00 6.6 35 Norte 59 Norte 0 -- -- 43
2018-02-05 13:00:00 7.3 29 Norte 48 Norte 0 -- -- 47
2018-02-05 12:00:00 5.7 30 Nordeste 40 Nordeste 0 -- -- 56
2018-02-05 11:00:00 4.8 22 Norte 32 Nordeste 0 -- -- 63
2018-02-05 10:00:00 1.6 16 Norte 22 Norte 0 -- -- 81
2018-02-05 09:00:00 -0.3 10 Norte 14 Norte 0 -- -- 86
2018-02-05 08:00:00 -0.8 9 Nordeste 13 Nordeste 0 -- -- 85
2018-02-05 07:00:00 -1.5 5 Norte 7 Norte 0 -- -- 88
2018-02-05 06:00:00 -0.8 5 Norte 12 Norte 0 -- -- 86
2018-02-05 05:00:00 -2.2 12 Norte 14 Norte 0 -- -- 92
2018-02-05 04:00:00 -2.3 12 Norte 15 Norte 0 -- -- 90
2018-02-05 03:00:00 -1.3 8 Nordeste 9 Nordeste 0 -- -- 82
2018-02-05 02:00:00 -1.8 3 Nordeste 9 Este 0 -- -- 82
2018-02-05 01:00:00 -1.6 8 Nordeste 12 Norte 0 -- -- 83
2018-02-05 00:00:00 -1.8 10 Norte 18 Norte 0 -- -- 82
2018-02-04 23:00:00 -1.1 14 Norte 17 Norte 0 -- -- 81
2018-02-04 22:00:00 -1.6 10 Norte 13 Norte 0 -- -- 83
2018-02-04 21:00:00 -0.7 11 Norte 15 Norte 0 -- -- 79
2018-02-04 20:00:00 0.8 12 Norte 16 Norte 0 -- -- 67
2018-02-04 19:00:00 2.8 12 Nordeste 21 Nordeste 0 -- -- 58
2018-02-04 18:00:00 5.3 20 Nordeste 32 Nordeste 0 -- -- 50
2018-02-04 17:00:00 5.9 17 Norte 36 Norte 0 -- -- 50
2018-02-04 16:00:00 5.9 26 Norte 37 Nordeste 0 -- -- 48
2018-02-04 15:00:00 8.2 20 Nordeste 36 Norte 0 -- -- 42
2018-02-04 14:00:00 6.6 25 Nordeste 37 Nordeste 0 -- -- 46
2018-02-04 13:00:00 6.6 29 Norte 41 Norte 0 -- -- 48
2018-02-04 12:00:00 5.6 25 Nordeste 36 Norte 0 -- -- 52
2018-02-04 11:00:00 2.8 21 Norte 32 Norte 0 -- -- 62
2018-02-04 10:00:00 3.4 8 Norte 11 Norte 0 -- -- 62
2018-02-04 09:00:00 -0.8 6 Noroeste 14 Sudoeste 0 -- -- 79
2018-02-04 08:00:00 -1.7 7 Oeste 16 Noroeste 0 -- -- 81
2018-02-04 07:00:00 -0.5 13 Noroeste 20 Noroeste 0 -- -- 76
2018-02-04 06:00:00 -0.8 15 Noroeste 21 Noroeste 0 -- -- 77
2018-02-04 05:00:00 -0.6 11 Noroeste 23 Noroeste 0 -- -- 75
2018-02-04 04:00:00 -0.2 17 Noroeste 29 Noroeste 0 -- -- 75
2018-02-04 03:00:00 1.5 22 Noroeste 32 Noroeste 0 -- -- 71
2018-02-04 02:00:00 1.6 22 Noroeste 33 Noroeste 0 -- -- 75
2018-02-04 01:00:00 2 12 Oeste 24 Oeste 0 -- -- 91
2018-02-04 00:00:00 2.1 13 Sudoeste 23 Oeste 0 -- -- 93
2018-02-03 23:00:00 2.1 10 Sudoeste 16 Oeste 0 -- -- 95
2018-02-03 22:00:00 1.9 11 Sudoeste 22 Oeste 0 -- -- 97
2018-02-03 21:00:00 2.8 16 Oeste 28 Oeste 0 -- -- 95
2018-02-03 20:00:00 3.7 20 Oeste 29 Oeste 0 -- -- 100
2018-02-03 19:00:00 3.8 17 Sudoeste 27 Sudoeste 0 -- -- 100
2018-02-03 18:00:00 4 18 Sudoeste 37 Sudoeste 0 -- -- 98
2018-02-03 17:00:00 5.3 23 Sudoeste 37 Sudoeste 0 -- -- 87
2018-02-03 16:00:00 6.1 26 Sudoeste 43 Oeste 0 -- -- 84
2018-02-03 15:00:00 6 23 Oeste 37 Oeste 0 -- -- 81
2018-02-03 14:00:00 5.4 19 Oeste 42 Oeste 0 -- -- 79
2018-02-03 13:00:00 5.4 20 Oeste 41 Sudoeste 0 -- -- 78
2018-02-03 12:00:00 5.8 22 Oeste 36 Oeste 0 -- -- 73
2018-02-03 11:00:00 2.5 14 Sudoeste 22 Oeste 0 -- -- 80
2018-02-03 10:00:00 -0.3 15 Sudoeste 21 Sudoeste 0 -- -- 88
2018-02-03 09:00:00 -1.4 12 Sudoeste 16 Sudoeste 0 -- -- 87
2018-02-03 08:00:00 -1.4 13 Sudoeste 17 Sudoeste 0 -- -- 85
2018-02-03 07:00:00 -1.8 10 Sudoeste 20 Sudoeste 0 -- -- 88
2018-02-03 06:00:00 -1.8 13 Sudoeste 18 Sudoeste 0 -- -- 86
2018-02-03 05:00:00 -2 13 Sudoeste 17 Sudoeste 0 -- -- 81
2018-02-03 04:00:00 -1.8 9 Sudoeste 11 Oeste 0 -- -- 79
2018-02-03 03:00:00 -1.8 5 Oeste 13 Oeste 0 -- -- 79
2018-02-03 02:00:00 -1.4 8 Oeste 12 Oeste 0 -- -- 75
2018-02-03 01:00:00 -1.3 5 Sudoeste 10 Oeste 0 -- -- 73
2018-02-03 00:00:00 -0.8 9 Noroeste 18 Norte 0 -- -- 71
2018-02-02 23:00:00 -0.3 5 Noroeste 14 Oeste 0 -- -- 67
2018-02-02 22:00:00 0.6 9 Noroeste 16 Noroeste 0 -- -- 66
2018-02-02 21:00:00 0.9 15 Noroeste 23 Noroeste 0 -- -- 61
2018-02-02 20:00:00 0.9 14 Norte 22 Norte 0 -- -- 62
2018-02-02 19:00:00 2.3 12 Norte 21 Norte 0 -- -- 56
2018-02-02 18:00:00 6.9 13 Norte 31 Norte 0 -- -- 43
2018-02-02 17:00:00 7.4 14 Nordeste 32 Nordeste 0 -- -- 40
2018-02-02 16:00:00 7.1 18 Norte 28 Norte 0 -- -- 41
2018-02-02 15:00:00 6.3 19 Norte 30 Norte 0 -- -- 40
2018-02-02 14:00:00 5.3 9 Sudoeste 22 Norte 0 -- -- 53
2018-02-02 13:00:00 5.6 9 Noroeste 20 Noroeste 0 -- -- 48
2018-02-02 12:00:00 6.9 7 Noroeste 22 Norte 0 -- -- 48
2018-02-02 11:00:00 5 13 Noroeste 21 Noroeste 0 -- -- 54
2018-02-02 10:00:00 3.4 5 Noroeste 11 Oeste 0 -- -- 61
2018-02-02 09:00:00 -0.7 5 Oeste 15 Oeste 0 -- -- 72
2018-02-02 08:00:00 -3.3 4 Sudoeste 12 Oeste 0 -- -- 82
2018-02-02 07:00:00 -2.5 9 Noroeste 17 Noroeste 0 -- -- 78
2018-02-02 06:00:00 -2 9 Sudoeste 12 Oeste 0 -- -- 78
2018-02-02 05:00:00 -1.7 3 Norte 13 Sudoeste 0 -- -- 77
2018-02-02 04:00:00 -0.7 6 Sudoeste 14 Noroeste 0 -- -- 71
2018-02-02 03:00:00 -0.3 4 Noroeste 10 Noroeste 0 -- -- 71
2018-02-02 02:00:00 -1.4 6 Noroeste 13 Noroeste 0 -- -- 81
2018-02-02 01:00:00 -0.7 8 Noroeste 13 Noroeste 0 -- -- 75
2018-02-02 00:00:00 -1.3 4 Norte 21 Noroeste 0 -- -- 79
2018-02-01 23:00:00 0.3 15 Noroeste 24 Norte 0 -- -- 74
2018-02-01 22:00:00 1.1 19 Noroeste 29 Noroeste 0 -- -- 72
2018-02-01 21:00:00 0.9 12 Norte 29 Norte 0 -- -- 71
2018-02-01 20:00:00 1.6 15 Noroeste 33 Norte 0 -- -- 69
2018-02-01 19:00:00 3.4 23 Noroeste 34 Noroeste 0 -- -- 62
2018-02-01 18:00:00 5.9 25 Noroeste 38 Noroeste 0 -- -- 53
2018-02-01 17:00:00 6.4 27 Noroeste 40 Noroeste 0 -- -- 56
2018-02-01 16:00:00 7.3 15 Noroeste 29 Noroeste 0 -- -- 57
2018-02-01 15:00:00 6.9 18 Oeste 30 Oeste 0 -- -- 58
2018-02-01 14:00:00 8.6 17 Noroeste 37 Oeste 0 -- -- 52
2018-02-01 13:00:00 8.5 17 Noroeste 30 Noroeste 0 -- -- 51
2018-02-01 12:00:00 7.9 20 Noroeste 33 Noroeste 0 -- -- 56
2018-02-01 11:00:00 8.5 12 Noroeste 25 Noroeste 0 -- -- 54
2018-02-01 10:00:00 4.7 11 Noroeste 19 Noroeste 0 -- -- 75
2018-02-01 09:00:00 2.2 10 Oeste 14 Oeste 0 -- -- 94
2018-02-01 08:00:00 2.6 12 Oeste 14 Sudoeste 0 -- -- 90
2018-02-01 07:00:00 2.5 6 Oeste 15 Oeste 0 -- -- 86
2018-02-01 06:00:00 2.7 4 Sudoeste 7 Sudoeste 0 -- -- 82
2018-02-01 05:00:00 2.3 3 Oeste 9 Sudoeste 0 -- -- 86
2018-02-01 04:00:00 3.9 10 Oeste 11 Oeste 0 -- -- 78
2018-02-01 03:00:00 2.7 5 Oeste 9 Oeste 0 -- -- 84
2018-02-01 02:00:00 4 11 Sudoeste 13 Sudoeste 0 -- -- 81
2018-02-01 01:00:00 3.5 6 Sudoeste 14 Sudoeste 0 -- -- 81
2018-02-01 00:00:00 4.4 6 Sudoeste 10 Noroeste 0 -- -- 79
2018-01-31 23:00:00 5 8 Sudoeste 9 Sudoeste 0 -- -- 75
2018-01-31 22:00:00 4.6 8 Noroeste 10 Noroeste 0 -- -- 78
2018-01-31 21:00:00 6.6 10 Oeste 15 Oeste 0 -- -- 70
2018-01-31 20:00:00 7.2 12 Sudoeste 14 Oeste 0 -- -- 67
2018-01-31 19:00:00 7.4 12 Sudoeste 18 Sudoeste 0 -- -- 64
2018-01-31 18:00:00 10.4 13 Sudoeste 22 Sudoeste 0 -- -- 55
2018-01-31 17:00:00 12.8 16 Sudoeste 24 Oeste 0 -- -- 44
2018-01-31 16:00:00 13.3 15 Sudoeste 23 Sudoeste 0 -- -- 43
2018-01-31 15:00:00 13.2 14 Sudoeste 21 Sudoeste 0 -- -- 43
2018-01-31 14:00:00 13.1 12 Sudoeste 18 Sudoeste 0 -- -- 47
2018-01-31 13:00:00 12.4 9 Sudoeste 17 Sudoeste 0 -- -- 48
2018-01-31 12:00:00 11.7 7 Sur 13 Sur 0 -- -- 52
2018-01-31 11:00:00 9.2 4 Este 7 Este 0 -- -- 65
2018-01-31 10:00:00 6.4 5 Sudeste 12 Sudeste 0 -- -- 73
2018-01-31 09:00:00 3.2 8 Sudeste 10 Sudeste 0 -- -- 79
2018-01-31 08:00:00 1.9 4 Nordeste 6 Este 0 -- -- 79
2018-01-31 07:00:00 1.5 4 Este 6 Norte 0 -- -- 81
2018-01-31 06:00:00 1.6 5 Nordeste 8 Norte 0 -- -- 81
2018-01-31 05:00:00 1 6 Norte 8 Este 0 -- -- 88
2018-01-31 04:00:00 3.6 6 Nordeste -- -- 0 -- -- 77
2018-01-31 03:00:00 2.2 5 Nordeste 7 Este 0 -- -- 84
2018-01-31 02:00:00 2.1 5 Norte 13 Nordeste 0 -- -- 83
2018-01-31 01:00:00 3.4 8 Norte 10 Norte 0 -- -- 81
2018-01-31 00:00:00 2.3 4 Norte 9 Nordeste 0 -- -- 86
2018-01-30 23:00:00 2.2 9 Nordeste 11 Nordeste 0 -- -- 86
2018-01-30 22:00:00 4.9 9 Este 12 Este 0 -- -- 75
2018-01-30 21:00:00 5.4 11 Sudeste 15 Este 0 -- -- 74
2018-01-30 20:00:00 6.1 13 Este 15 Este 0 -- -- 70
2018-01-30 19:00:00 7.7 12 Este 13 Este 0 -- -- 61
2018-01-30 18:00:00 11.8 10 Este 15 Este 0 -- -- 49
2018-01-30 17:00:00 14.5 7 Nordeste 14 Este 0 -- -- 40
2018-01-30 16:00:00 14.8 6 Nordeste 21 Nordeste 0 -- -- 39
2018-01-30 15:00:00 13.5 10 Este 18 Este 0 -- -- 43
2018-01-30 14:00:00 12.7 11 Este 19 Nordeste 0 -- -- 46
2018-01-30 13:00:00 11.3 12 Este 19 Sudeste 0 -- -- 52
2018-01-30 12:00:00 9.6 14 Nordeste 21 Nordeste 0 -- -- 59
2018-01-30 11:00:00 7 13 Nordeste 18 Nordeste 0 -- -- 68
2018-01-30 10:00:00 4.4 13 Nordeste 16 Nordeste 0 -- -- 75
2018-01-30 09:00:00 1.1 10 Nordeste 19 Este 0 -- -- 83
2018-01-30 08:00:00 1.1 16 Nordeste 17 Nordeste 0 -- -- 84
2018-01-30 07:00:00 1.3 14 Nordeste 20 Norte 0 -- -- 82
2018-01-30 06:00:00 1.4 18 Norte 20 Norte 0 -- -- 85
2018-01-30 05:00:00 1.8 13 Nordeste 15 Nordeste 0 -- -- 86
2018-01-30 04:00:00 1.9 14 Nordeste 21 Nordeste 0 -- -- 88
2018-01-30 03:00:00 2.5 16 Este 19 Nordeste 0 -- -- 85
2018-01-30 02:00:00 2.6 14 Nordeste 16 Nordeste 0 -- -- 83
2018-01-30 01:00:00 3.4 14 Nordeste 17 Nordeste 0 -- -- 81
2018-01-30 00:00:00 2.9 13 Nordeste 15 Nordeste 0 -- -- 83
2018-01-29 23:00:00 3.4 13 Nordeste 13 Nordeste 0 -- -- 81
2018-01-29 22:00:00 4.5 12 Nordeste 15 Nordeste 0 -- -- 78
2018-01-29 21:00:00 4.8 13 Nordeste 15 Nordeste 0 -- -- 77
2018-01-29 20:00:00 5.2 14 Nordeste 18 Nordeste 0 -- -- 74
2018-01-29 19:00:00 6.6 15 Nordeste 17 Este 0 -- -- 65
2018-01-29 18:00:00 11.3 13 Este 23 Nordeste 0 -- -- 52
2018-01-29 17:00:00 13.1 17 Este 28 Nordeste 0 -- -- 44
2018-01-29 16:00:00 13.6 17 Este 30 Este 0 -- -- 44
2018-01-29 15:00:00 13.4 15 Este 24 Este 0 -- -- 48
2018-01-29 14:00:00 12.8 19 Este 25 Este 0 -- -- 51
2018-01-29 13:00:00 11.7 16 Nordeste 23 Nordeste 0 -- -- 56
2018-01-29 12:00:00 10 14 Nordeste 21 Nordeste 0 -- -- 63
2018-01-29 11:00:00 8.5 10 Nordeste 17 Nordeste 0 -- -- 70
2018-01-29 10:00:00 5.6 11 Nordeste 17 Nordeste 0 -- -- 77
2018-01-29 09:00:00 2 14 Nordeste 17 Nordeste 0 -- -- 90
2018-01-29 08:00:00 1.4 12 Nordeste 25 Nordeste 0 -- -- 92
2018-01-29 07:00:00 1.5 18 Nordeste 22 Nordeste 0 -- -- 94
2018-01-29 06:00:00 1.2 14 Nordeste 19 Nordeste 0 -- -- 94
2018-01-29 05:00:00 1.8 16 Nordeste 24 Nordeste 0 -- -- 91
2018-01-29 04:00:00 2 16 Nordeste 21 Nordeste 0 -- -- 91
2018-01-29 03:00:00 2.7 18 Nordeste 22 Nordeste 0 -- -- 88
2018-01-29 02:00:00 2.7 18 Nordeste 22 Nordeste 0 -- -- 88
2018-01-29 01:00:00 2.2 14 Norte 19 Nordeste 0 -- -- 90
2018-01-29 00:00:00 2.7 13 Nordeste 19 Nordeste 0 -- -- 87
2018-01-28 23:00:00 3.8 12 Nordeste 17 Nordeste 0 -- -- 82
2018-01-28 22:00:00 5 14 Nordeste 19 Nordeste 0 -- -- 77
2018-01-28 21:00:00 4.8 15 Nordeste 19 Nordeste 0 -- -- 79
2018-01-28 20:00:00 5.8 12 Nordeste 22 Nordeste 0 -- -- 76
2018-01-28 19:00:00 7.7 14 Nordeste 34 Este 0 -- -- 68
2018-01-28 18:00:00 10.2 25 Nordeste 44 Este 0 -- -- 59
2018-01-28 17:00:00 11.3 32 Nordeste 46 Este 0 -- -- 53
2018-01-28 16:00:00 11.7 31 Nordeste 46 Este 0 -- -- 51
2018-01-28 15:00:00 11.7 30 Nordeste 48 Este 0 -- -- 50
2018-01-28 14:00:00 10.8 31 Nordeste 42 Nordeste 0 -- -- 47
2018-01-28 13:00:00 9.1 28 Nordeste 39 Este 0 -- -- 51
2018-01-28 12:00:00 7.6 23 Nordeste 36 Nordeste 0 -- -- 52
2018-01-28 11:00:00 5.2 25 Nordeste 36 Nordeste 0 -- -- 56
2018-01-28 10:00:00 3.4 14 Nordeste 24 Nordeste 0 -- -- 66
2018-01-28 09:00:00 0.4 19 Nordeste 25 Nordeste 0 -- -- 78
2018-01-28 08:00:00 0.3 19 Nordeste 27 Nordeste 0 -- -- 79
2018-01-28 07:00:00 0.3 22 Nordeste 28 Nordeste 0 -- -- 81
2018-01-28 06:00:00 0.8 23 Nordeste 35 Nordeste 0 -- -- 81
2018-01-28 05:00:00 -0.2 22 Nordeste 27 Nordeste 0 -- -- 92
2018-01-28 04:00:00 -0.1 17 Nordeste 24 Nordeste 0 -- -- 91
2018-01-28 03:00:00 -0.2 15 Nordeste 24 Nordeste 0 -- -- 93
2018-01-28 02:00:00 0.3 16 Nordeste 23 Nordeste 0 -- -- 93
2018-01-28 01:00:00 0.8 10 Nordeste 24 Nordeste 0 -- -- 91
2018-01-28 00:00:00 2.3 18 Nordeste 29 Este 0 -- -- 89
2018-01-27 23:00:00 4 20 Este 31 Nordeste 0 -- -- 85
2018-01-27 22:00:00 5 17 Este 26 Nordeste 0 -- -- 81
2018-01-27 21:00:00 5.9 17 Nordeste 27 Este 0 -- -- 79
2018-01-27 20:00:00 6.8 17 Nordeste 25 Nordeste 0 -- -- 72
2018-01-27 19:00:00 7.2 14 Nordeste 22 Nordeste 0 -- -- 68
2018-01-27 18:00:00 8 19 Norte 27 Nordeste 0 -- -- 63
2018-01-27 17:00:00 8.9 15 Nordeste 27 Nordeste 0 -- -- 57
2018-01-27 16:00:00 9.2 22 Norte 31 Norte 0 -- -- 55
2018-01-27 15:00:00 10 18 Norte 28 Norte 0 -- -- 50
2018-01-27 14:00:00 11.2 15 Norte 32 Nordeste 0 -- -- 45
2018-01-27 13:00:00 10.1 14 Norte 25 Norte 0 -- -- 50
2018-01-27 12:00:00 10.3 8 Norte 13 Noroeste 0 -- -- 50
2018-01-27 11:00:00 6.7 8 Noroeste 11 Noroeste 0 -- -- 69
2018-01-27 10:00:00 1.1 2 Oeste 7 Oeste 0 -- -- 87
2018-01-27 09:00:00 -0.7 6 Noroeste 10 Noroeste 0 -- -- 95
2018-01-27 08:00:00 -1.4 2 Oeste 9 Noroeste 0 -- -- 100
2018-01-27 07:00:00 -0.8 7 Noroeste 12 Noroeste 0 -- -- 97
2018-01-27 06:00:00 -1.1 5 Oeste 8 Sudoeste 0 -- -- 98
2018-01-27 05:00:00 -0.7 4 Noroeste 11 Noroeste 0 -- -- 98
2018-01-27 04:00:00 -0.6 5 Noroeste 10 Oeste 0 -- -- 96
2018-01-27 03:00:00 -1 8 Noroeste 10 Oeste 0 -- -- 95
2018-01-27 02:00:00 -0.4 6 Noroeste 12 Oeste 0 -- -- 94
2018-01-27 01:00:00 0.1 5 Oeste 13 Oeste 0 -- -- 93
2018-01-27 00:00:00 0.7 9 Oeste 12 Oeste 0 -- -- 91
2018-01-26 23:00:00 -0.2 4 Noroeste 12 Noroeste 0 -- -- 91
2018-01-26 22:00:00 1.4 6 Oeste 12 Oeste 0 -- -- 84
2018-01-26 21:00:00 1.4 4 Oeste 19 Oeste 0 -- -- 82
2018-01-26 20:00:00 3.2 10 Oeste 15 Noroeste 0 -- -- 71
2018-01-26 19:00:00 3.9 15 Noroeste 30 Noroeste 0 -- -- 71
2018-01-26 18:00:00 6.1 23 Noroeste 34 Noroeste 0 -- -- 61
2018-01-26 17:00:00 9.2 22 Noroeste 41 Noroeste 0 -- -- 52
2018-01-26 16:00:00 8.5 26 Noroeste 37 Noroeste 0 -- -- 55
2018-01-26 15:00:00 9.2 25 Noroeste 42 Noroeste 0 -- -- 51
2018-01-26 14:00:00 8.6 25 Noroeste 40 Noroeste 0 -- -- 57
2018-01-26 13:00:00 8 16 Noroeste 30 Noroeste 0 -- -- 60
2018-01-26 12:00:00 5.5 12 Sudoeste 28 Sudoeste 0 -- -- 75
2018-01-26 11:00:00 3 14 Oeste 21 Oeste 0 -- -- 87
2018-01-26 10:00:00 1.3 8 Sudoeste 13 Sudoeste 0 -- -- 90
2018-01-26 09:00:00 -2 5 Sur 15 Oeste 0 -- -- 100
2018-01-26 08:00:00 -1.3 11 Sudoeste 14 Sudoeste 0 -- -- 100
2018-01-26 07:00:00 -1.3 13 Sudoeste 14 Sudoeste 0 -- -- 100
2018-01-26 06:00:00 -1.5 12 Sudoeste 15 Oeste 0 -- -- 100
2018-01-26 05:00:00 -1.5 11 Sudoeste 17 Sudoeste 0 -- -- 100
2018-01-26 04:00:00 -1.3 10 Sudoeste 14 Sudoeste 0 -- -- 98
2018-01-26 03:00:00 -0.8 11 Sudoeste 14 Oeste 0 -- -- 97
2018-01-26 02:00:00 -0.6 8 Oeste 14 Sudoeste 0 -- -- 95
2018-01-26 01:00:00 0 10 Oeste 19 Oeste 0 -- -- 94
2018-01-26 00:00:00 0.6 13 Oeste 19 Oeste 0 -- -- 90
2018-01-25 23:00:00 0.5 11 Oeste 20 Oeste 0 -- -- 95
2018-01-25 22:00:00 0.3 10 Sudoeste 16 Oeste 0 -- -- 97
2018-01-25 21:00:00 1.8 11 Oeste 23 Oeste 0 -- -- 90
2018-01-25 20:00:00 2.4 14 Oeste 22 Oeste 0 -- -- 86
2018-01-25 19:00:00 3.1 11 Oeste 18 Oeste 0 -- -- 90
2018-01-25 18:00:00 3.8 7 Oeste 20 Norte 0 -- -- 89
2018-01-25 17:00:00 3.4 28 Norte 54 Noroeste 0.4 -- -- 91
2018-01-25 16:00:00 5.2 16 Oeste 27 Oeste 0 -- -- 91
2018-01-25 15:00:00 5.1 15 Oeste 33 Oeste 0.4 -- -- 91
2018-01-25 14:00:00 6.5 19 Oeste 29 Oeste 0 -- -- 88
2018-01-25 13:00:00 5.5 15 Sudoeste 32 Oeste 1 -- -- 96
2018-01-25 12:00:00 5.2 15 Oeste 32 Oeste 1.4 -- -- 100
2018-01-25 11:00:00 5.3 16 Oeste 39 Sudoeste 0.2 -- -- 100
2018-01-25 10:00:00 6 18 Sudoeste 30 Sudoeste 0.2 -- -- 100
2018-01-25 09:00:00 6 22 Sudoeste 39 Sudoeste 0.4 -- -- 100
2018-01-25 08:00:00 5.9 18 Sudoeste 32 Sudoeste 0.4 -- -- 100
2018-01-25 07:00:00 5.7 21 Sudoeste 37 Sur 1.4 -- -- 100
2018-01-25 06:00:00 5.4 20 Sur 32 Sur 3.8 -- -- 100
2018-01-25 05:00:00 4.9 15 Sur 25 Sudoeste 1 -- -- 100
2018-01-25 04:00:00 4.7 11 Sur 16 Sur 0 -- -- 99
2018-01-25 03:00:00 5 6 Sudoeste 12 Sudoeste 0 -- -- 97
2018-01-25 02:00:00 4.9 7 Sudoeste 10 Sudoeste 0 -- -- 96
2018-01-25 01:00:00 5.1 7 Sudoeste 14 Sudoeste 0 -- -- 94
2018-01-25 00:00:00 5.3 9 Sudoeste 12 Sudoeste 0 -- -- 93
2018-01-24 23:00:00 4.9 8 Sur 11 Sur 0 -- -- 95
2018-01-24 22:00:00 4.9 5 Oeste 9 Oeste 0 -- -- 94
2018-01-24 21:00:00 4.6 5 Oeste 12 Sudoeste 0 -- -- 95
2018-01-24 20:00:00 5.1 9 Sudoeste 15 Sudoeste 0 -- -- 90
2018-01-24 19:00:00 5.9 8 Sudoeste 14 Sudoeste 0 -- -- 88
2018-01-24 18:00:00 6.8 7 Sudoeste 17 Sudoeste 0 -- -- 83
2018-01-24 17:00:00 7.7 11 Oeste 19 Oeste 0 -- -- 77
2018-01-24 16:00:00 8.1 10 Sudoeste 18 Sudoeste 0 -- -- 75
2018-01-24 15:00:00 9.7 10 Sudoeste 19 Oeste 0 -- -- 68
2018-01-24 14:00:00 8.5 8 Sudoeste 15 Sudoeste 0 -- -- 72
2018-01-24 13:00:00 6.9 8 Sudoeste 15 Oeste 0 -- -- 77
2018-01-24 12:00:00 4.2 10 Sudoeste 18 Sudoeste 0 -- -- 88
2018-01-24 11:00:00 2.9 8 Oeste 15 Oeste 0 -- -- 94
2018-01-24 10:00:00 2.4 7 Sudoeste 12 Oeste 0 -- -- 99
2018-01-24 09:00:00 2.2 4 Sudeste 10 Sudeste 0 -- -- 100
2018-01-24 08:00:00 2.1 2 Este 8 Este 0 -- -- 100
2018-01-24 07:00:00 2.1 3 Este 6 Este 0 -- -- 100
2018-01-24 06:00:00 2 6 Este 12 Este 0 -- -- 100
2018-01-24 05:00:00 2.2 4 Sudeste 12 Sudeste 0 -- -- 100
2018-01-24 04:00:00 2.3 5 Nordeste 13 Sudeste 0 -- -- 100
2018-01-24 03:00:00 2.4 8 Este 13 Este 0 -- -- 100
2018-01-24 02:00:00 2.7 8 Nordeste 14 Sudeste 0 -- -- 100
2018-01-24 01:00:00 3 8 Este 15 Este 0 -- -- 99
2018-01-24 00:00:00 3.2 10 Nordeste 16 Este 0 -- -- 99
2018-01-23 23:00:00 3.5 9 Este 17 Este 0 -- -- 99
2018-01-23 22:00:00 3.6 7 Este 16 Este 0 -- -- 100
2018-01-23 21:00:00 4 8 Este 16 Este 0 -- -- 100
2018-01-23 20:00:00 4.2 8 Este 14 Este 0 -- -- 100
2018-01-23 19:00:00 4.6 0 Calma 10 Este 0 -- -- 100
2018-01-23 18:00:00 5.1 4 Norte 12 Nordeste 0 -- -- 100
2018-01-23 17:00:00 5.5 6 Norte 10 Norte 0 -- -- 100
2018-01-23 16:00:00 5.4 6 Nordeste 12 Nordeste 0 -- -- 100
2018-01-23 15:00:00 5.6 0 Calma 9 Nordeste 0 -- -- 100
2018-01-23 14:00:00 5.1 5 Nordeste 10 Este 0 -- -- 100
2018-01-23 13:00:00 5.1 6 Este 12 Este 0 -- -- 100
2018-01-23 12:00:00 4.7 8 Este 15 Nordeste 0 -- -- 100
2018-01-23 11:00:00 4.1 9 Este 16 Este 0 -- -- 100
2018-01-23 10:00:00 3.7 8 Nordeste 13 Este 0 -- -- 100
2018-01-23 09:00:00 3.6 7 Nordeste 12 Nordeste 0 -- -- 100
2018-01-23 08:00:00 3.9 7 Nordeste 14 Nordeste 0 -- -- 100
2018-01-23 07:00:00 4.1 10 Nordeste 16 Nordeste 0 -- -- 100
2018-01-23 06:00:00 4.5 8 Este 18 Este 0 -- -- 100
2018-01-23 05:00:00 4.9 13 Este 18 Nordeste 0 -- -- 100
2018-01-23 04:00:00 5.2 9 Nordeste 14 Nordeste 0 -- -- 100
2018-01-23 03:00:00 5.2 9 Nordeste 16 Nordeste 0 -- -- 100
2018-01-23 02:00:00 5.1 12 Nordeste 17 Este 0 -- -- 100
2018-01-23 01:00:00 5.2 12 Nordeste 18 Este 0 -- -- 100
2018-01-23 00:00:00 5.1 13 Este 24 Este 0 -- -- 100
2018-01-22 23:00:00 4.6 18 Este 24 Este 0 -- -- 100
2018-01-22 22:00:00 4.1 13 Este 21 Este 0 -- -- 100
2018-01-22 21:00:00 4.7 14 Este 16 Este 0 -- -- 100
2018-01-22 20:00:00 7.1 6 Sur 9 Sur 0 -- -- 91
2018-01-22 19:00:00 8.2 7 Sur 9 Sur 0 -- -- 88
2018-01-22 18:00:00 12.1 7 Sudoeste 16 Sudoeste 0 -- -- 72
2018-01-22 17:00:00 13.4 9 Sudoeste 17 Sur 0 -- -- 66
2018-01-22 16:00:00 13.2 8 Oeste 24 Sudoeste 0 -- -- 67
2018-01-22 15:00:00 12.8 10 Sudoeste 23 Oeste 0 -- -- 70
2018-01-22 14:00:00 10.5 12 Oeste 18 Oeste 0 -- -- 95
2018-01-22 13:00:00 7.1 4 Oeste 11 Sur 0 -- -- 99
2018-01-22 12:00:00 6 7 Sudoeste 14 Sudoeste 0 -- -- 100
2018-01-22 11:00:00 5.2 9 Sudoeste 18 Sudoeste 0 -- -- 100
2018-01-22 10:00:00 4.8 9 Sur 13 Sur 0 -- -- 100
2018-01-22 09:00:00 3.2 5 Sudoeste 7 Sudoeste 0.2 -- -- 100
2018-01-22 08:00:00 4.1 4 Oeste 10 Oeste 0 -- -- 100
2018-01-22 07:00:00 3.4 3 Sudoeste 9 Oeste 0 -- -- 100
2018-01-22 06:00:00 4.4 7 Sudoeste 12 Oeste 0 -- -- 100
2018-01-22 05:00:00 3.6 2 Sur 8 Sudoeste 0 -- -- 100
2018-01-22 04:00:00 4.1 3 Sur 5 Sur 0 -- -- 100
2018-01-22 03:00:00 3.2 3 Sur 9 Oeste 0 -- -- 100
2018-01-22 02:00:00 4 5 Oeste 9 Oeste 0 -- -- 100
2018-01-22 01:00:00 4.9 4 Sudoeste 12 Sudoeste 0 -- -- 100
2018-01-22 00:00:00 5.5 8 Sudoeste 10 Sur 0 -- -- 100